createdAt,value
2018-12-07T00:00:20.648Z,1.77
2018-12-07T00:02:53.822Z,1.33
2018-12-07T00:05:26.241Z,1.27
2018-12-07T00:07:58.527Z,1.23
2018-12-07T00:10:31.092Z,1.20
2018-12-07T00:13:03.522Z,1.23
2018-12-07T00:15:35.936Z,1.00
2018-12-07T00:18:08.378Z,1.30
2018-12-07T00:20:40.884Z,0.90
2018-12-07T00:23:13.281Z,1.40
2018-12-07T00:25:46.620Z,1.33
2018-12-07T00:28:18.983Z,1.13
2018-12-07T00:30:51.424Z,1.10
2018-12-07T00:33:24.924Z,1.30
2018-12-07T00:35:58.143Z,1.47
2018-12-07T00:38:30.540Z,1.10
2018-12-07T00:41:03.015Z,1.10
2018-12-07T00:43:36.139Z,0.90
2018-12-07T00:46:08.806Z,1.10
2018-12-07T00:48:42.075Z,1.60
2018-12-07T00:51:15.350Z,1.10
2018-12-07T00:53:48.574Z,1.10
2018-12-07T00:56:21.158Z,1.27
2018-12-07T00:58:54.385Z,0.97
2018-12-07T01:01:26.815Z,1.27
2018-12-07T01:03:59.343Z,1.07
2018-12-07T01:06:32.408Z,1.47
2018-12-07T01:09:05.368Z,1.03
2018-12-07T01:11:38.215Z,1.10
2018-12-07T01:14:10.563Z,1.20
2018-12-07T01:16:43.211Z,1.30
2018-12-07T01:19:16.436Z,0.90
2018-12-07T01:21:49.719Z,1.07
2018-12-07T01:24:22.157Z,0.97
2018-12-07T01:26:55.495Z,1.00
2018-12-07T01:29:28.036Z,0.90
2018-12-07T01:32:01.229Z,1.10
2018-12-07T01:34:33.612Z,1.10
2018-12-07T01:37:06.771Z,0.90
2018-12-07T01:39:39.449Z,1.00
2018-12-07T01:42:12.653Z,1.03
2018-12-07T01:44:45.917Z,0.90
2018-12-07T01:47:19.191Z,0.90
2018-12-07T01:49:51.606Z,0.80
2018-12-07T01:52:24.068Z,1.00
2018-12-07T01:54:56.538Z,0.80
2018-12-07T01:57:29.948Z,0.90
2018-12-07T02:00:06.644Z,1.17
2018-12-07T02:02:39.720Z,0.90
2018-12-07T02:05:12.500Z,1.03
2018-12-07T02:07:45.587Z,1.00
2018-12-07T02:10:17.968Z,1.07
2018-12-07T02:12:50.530Z,0.87
2018-12-07T02:15:23.709Z,1.00
2018-12-07T02:17:56.138Z,1.00
2018-12-07T02:20:29.424Z,0.70
2018-12-07T02:23:01.937Z,0.90
2018-12-07T02:25:35.224Z,1.00
2018-12-07T02:28:08.684Z,0.87
2018-12-07T02:30:41.953Z,0.93
2018-12-07T02:33:14.324Z,0.93
2018-12-07T02:35:46.790Z,0.80
2018-12-07T02:38:19.257Z,0.90
2018-12-07T02:40:51.730Z,0.90
2018-12-07T02:43:24.957Z,0.80
2018-12-07T02:45:57.435Z,1.03
2018-12-07T02:48:29.842Z,0.90
2018-12-07T02:51:02.482Z,0.70
2018-12-07T02:53:35.661Z,0.90
2018-12-07T02:56:08.121Z,1.00
2018-12-07T02:58:41.339Z,0.97
2018-12-07T03:01:13.923Z,0.90
2018-12-07T03:03:47.107Z,0.80
2018-12-07T03:06:20.583Z,0.90
2018-12-07T03:08:53.830Z,0.70
2018-12-07T03:11:27.136Z,0.90
2018-12-07T03:13:59.545Z,0.90
2018-12-07T03:16:32.074Z,0.93
2018-12-07T03:19:04.418Z,0.90
2018-12-07T03:21:37.846Z,1.10
2018-12-07T03:24:10.253Z,0.80
2018-12-07T03:26:42.796Z,1.10
2018-12-07T03:29:15.232Z,1.00
2018-12-07T03:31:47.744Z,0.70
2018-12-07T03:34:21.087Z,0.83
2018-12-07T03:36:53.524Z,0.87
2018-12-07T03:39:25.913Z,1.30
2018-12-07T03:41:59.226Z,1.13
2018-12-07T03:44:32.520Z,1.30
2018-12-07T03:47:04.883Z,1.27
2018-12-07T03:49:38.103Z,0.97
2018-12-07T03:52:10.663Z,1.10
2018-12-07T03:54:43.288Z,0.83
2018-12-07T03:57:16.444Z,0.97
2018-12-07T03:59:48.901Z,0.93
2018-12-07T04:02:22.352Z,0.70
2018-12-07T04:04:55.571Z,0.70
2018-12-07T04:07:28.844Z,0.70
2018-12-07T04:10:03.323Z,0.77
2018-12-07T04:12:36.459Z,0.90
2018-12-07T04:15:08.833Z,0.80
2018-12-07T04:17:42.151Z,0.80
2018-12-07T04:20:15.554Z,0.67
2018-12-07T04:22:48.933Z,0.70
2018-12-07T04:25:22.347Z,0.70
2018-12-07T04:27:55.627Z,0.60
2018-12-07T04:30:28.246Z,0.80
2018-12-07T04:33:01.532Z,0.73
2018-12-07T04:35:34.888Z,0.80
2018-12-07T04:38:08.123Z,0.73
2018-12-07T04:40:41.497Z,0.70
2018-12-07T04:43:14.776Z,0.80
2018-12-07T04:45:48.104Z,0.87
2018-12-07T04:48:22.056Z,0.80
2018-12-07T04:50:54.685Z,0.83
2018-12-07T04:53:28.091Z,0.80
2018-12-07T04:56:01.614Z,0.70
2018-12-07T04:58:34.737Z,0.83
2018-12-07T05:01:07.048Z,0.70
2018-12-07T05:03:39.578Z,0.60
2018-12-07T05:06:12.015Z,0.70
2018-12-07T05:08:45.307Z,0.83
2018-12-07T05:11:17.768Z,0.73
2018-12-07T05:13:51.157Z,0.70
2018-12-07T05:16:24.359Z,0.90
2018-12-07T05:18:57.600Z,0.90
2018-12-07T05:21:30.003Z,0.80
2018-12-07T05:24:02.385Z,0.77
2018-12-07T05:26:36.252Z,0.70
2018-12-07T05:29:09.304Z,0.80
2018-12-07T05:31:41.624Z,1.63
2018-12-07T05:34:14.979Z,1.13
2018-12-07T05:36:48.443Z,1.00
2018-12-07T05:39:21.635Z,1.00
2018-12-07T05:41:54.008Z,0.97
2018-12-07T05:44:27.337Z,1.00
2018-12-07T05:47:00.674Z,0.90
2018-12-07T05:49:34.037Z,0.90
2018-12-07T05:52:06.741Z,1.00
2018-12-07T05:54:39.704Z,0.97
2018-12-07T05:57:13.043Z,1.00
2018-12-07T05:59:46.546Z,1.10
2018-12-07T06:02:18.919Z,0.93
2018-12-07T06:04:52.260Z,0.73
2018-12-07T06:07:24.640Z,1.10
2018-12-07T06:09:58.120Z,0.80
2018-12-07T06:12:30.664Z,0.70
2018-12-07T06:15:04.452Z,0.80
2018-12-07T06:17:37.629Z,0.83
2018-12-07T06:20:10.812Z,0.80
2018-12-07T06:22:43.196Z,1.07
2018-12-07T06:25:16.526Z,0.80
2018-12-07T06:27:50.816Z,1.13
2018-12-07T06:30:23.406Z,1.10
2018-12-07T06:32:56.640Z,0.97
2018-12-07T06:35:29.957Z,0.90
2018-12-07T06:38:03.375Z,0.90
2018-12-07T06:40:35.805Z,0.80
2018-12-07T06:43:09.355Z,0.93
2018-12-07T06:45:41.799Z,0.93
2018-12-07T06:48:15.224Z,0.90
2018-12-07T06:50:48.597Z,0.80
2018-12-07T06:53:21.019Z,1.00
2018-12-07T06:55:54.512Z,0.97
2018-12-07T06:58:27.837Z,0.80
2018-12-07T07:01:01.277Z,1.00
2018-12-07T07:03:33.797Z,0.90
2018-12-07T07:06:08.072Z,0.80
2018-12-07T07:08:40.658Z,0.90
2018-12-07T07:11:13.131Z,0.80
2018-12-07T07:13:46.423Z,0.80
2018-12-07T07:16:23.102Z,0.80
2018-12-07T07:18:54.428Z,1.00
2018-12-07T07:21:26.968Z,1.30
2018-12-07T07:24:00.297Z,0.97
2018-12-07T07:26:33.580Z,0.90
2018-12-07T07:29:06.141Z,0.87
2018-12-07T07:31:43.375Z,1.00
2018-12-07T07:34:14.054Z,1.00
2018-12-07T07:36:47.446Z,0.80
2018-12-07T07:39:20.902Z,0.70
2018-12-07T07:41:53.231Z,0.90
2018-12-07T07:44:25.714Z,0.80
2018-12-07T07:46:58.973Z,0.80
2018-12-07T07:49:32.337Z,0.90
2018-12-07T07:52:05.680Z,0.80
2018-12-07T07:54:38.107Z,0.83
2018-12-07T07:57:11.478Z,0.90
2018-12-07T08:02:38.012Z,1.00
2018-12-07T08:05:10.801Z,0.80
2018-12-07T08:07:43.240Z,1.07
2018-12-07T08:10:16.560Z,0.90
2018-12-07T08:12:49.845Z,1.00
2018-12-07T08:15:23.234Z,0.70
2018-12-07T08:17:56.561Z,0.80
2018-12-07T08:20:28.938Z,0.90
2018-12-07T08:23:02.196Z,0.70
2018-12-07T08:25:35.455Z,0.90
2018-12-07T08:28:07.777Z,0.80
2018-12-07T08:30:40.211Z,0.97
2018-12-07T08:33:12.652Z,0.83
2018-12-07T08:35:46.026Z,0.90
2018-12-07T08:38:18.412Z,0.97
2018-12-07T08:40:51.022Z,1.13
2018-12-07T08:43:24.224Z,1.30
2018-12-07T08:45:56.820Z,0.83
2018-12-07T08:48:29.279Z,1.07
2018-12-07T08:51:01.692Z,0.90
2018-12-07T08:53:35.140Z,1.50
2018-12-07T08:56:08.495Z,1.63
2018-12-07T08:58:41.068Z,1.20
2018-12-07T09:01:14.359Z,1.10
2018-12-07T09:03:46.904Z,0.93
2018-12-07T09:06:20.248Z,0.80
2018-12-07T09:08:52.733Z,0.80
2018-12-07T09:11:26.157Z,1.00
2018-12-07T09:13:59.492Z,2.50
2018-12-07T09:16:32.849Z,3.70
2018-12-07T09:19:05.261Z,7.10
2018-12-07T09:21:38.528Z,11.73
2018-12-07T09:24:10.895Z,8.53
2018-12-07T09:26:44.400Z,3.70
2018-12-07T09:29:17.860Z,2.37
2018-12-07T09:31:51.190Z,1.30
2018-12-07T09:34:24.655Z,1.23
2018-12-07T09:36:57.822Z,1.10
2018-12-07T09:39:31.098Z,0.80
2018-12-07T09:42:04.666Z,0.93
2018-12-07T09:44:37.779Z,0.80
2018-12-07T09:47:11.224Z,0.80
2018-12-07T09:49:44.468Z,0.87
2018-12-07T09:52:17.746Z,1.23
2018-12-07T09:54:50.117Z,0.90
2018-12-07T09:57:22.503Z,1.50
2018-12-07T10:02:54.448Z,1.03
2018-12-07T10:05:27.012Z,1.00
2018-12-07T10:08:00.448Z,1.10
2018-12-07T10:10:33.870Z,0.90
2018-12-07T10:13:08.162Z,1.00
2018-12-07T10:15:41.373Z,0.80
2018-12-07T10:18:14.787Z,1.00
2018-12-07T10:23:41.155Z,0.87
2018-12-07T10:26:14.689Z,0.97
2018-12-07T10:28:47.546Z,0.83
2018-12-07T10:31:20.017Z,1.03
2018-12-07T10:33:52.427Z,0.80
2018-12-07T10:36:27.213Z,0.90
2018-12-07T10:39:00.216Z,0.80
2018-12-07T10:41:32.688Z,0.97
2018-12-07T10:44:06.059Z,1.03
2018-12-07T10:46:39.286Z,0.90
2018-12-07T10:49:11.920Z,1.50
2018-12-07T10:51:45.078Z,0.77
2018-12-07T10:54:17.756Z,0.80
2018-12-07T10:56:51.994Z,1.03
2018-12-07T10:59:24.540Z,1.00
2018-12-07T11:02:03.908Z,1.00
2018-12-07T11:04:43.208Z,1.10
2018-12-07T11:07:21.659Z,1.00
2018-12-07T11:10:00.065Z,0.80
2018-12-07T11:12:38.673Z,1.00
2018-12-07T11:15:17.207Z,1.20
2018-12-07T11:20:56.156Z,0.87
2018-12-07T11:23:34.903Z,0.80
2018-12-07T11:26:14.290Z,0.80
2018-12-07T11:28:52.832Z,0.80
2018-12-07T11:31:43.939Z,0.93
2018-12-07T11:34:18.866Z,0.87
2018-12-07T11:36:51.781Z,0.90
2018-12-07T11:39:26.370Z,1.00
2018-12-07T11:41:58.834Z,1.10
2018-12-07T11:44:32.127Z,0.83
2018-12-07T11:47:04.522Z,0.87
2018-12-07T11:49:37.801Z,0.90
2018-12-07T11:52:11.213Z,1.00
2018-12-07T11:54:43.810Z,0.90
2018-12-07T11:57:16.171Z,1.00
2018-12-07T11:59:48.512Z,1.10
2018-12-07T12:02:26.264Z,0.87
2018-12-07T12:04:55.413Z,0.93
2018-12-07T12:07:28.720Z,1.00
2018-12-07T12:10:02.969Z,0.90
2018-12-07T12:12:35.462Z,1.13
2018-12-07T12:15:08.075Z,0.73
2018-12-07T12:17:41.293Z,1.10
2018-12-07T12:20:14.666Z,0.90
2018-12-07T12:22:47.891Z,0.80
2018-12-07T12:25:21.177Z,1.00
2018-12-07T12:27:54.507Z,1.20
2018-12-07T12:30:26.895Z,1.13
2018-12-07T12:35:54.051Z,1.10
2018-12-07T12:38:27.209Z,1.20
2018-12-07T12:41:00.885Z,1.30
2018-12-07T12:43:33.949Z,1.33
2018-12-07T12:46:06.387Z,1.10
2018-12-07T12:48:38.821Z,1.20
2018-12-07T12:51:12.223Z,0.97
2018-12-07T12:53:46.040Z,1.23
2018-12-07T12:56:18.744Z,0.97
2018-12-07T12:58:52.167Z,0.93
2018-12-07T13:01:24.551Z,1.00
2018-12-07T13:03:57.909Z,0.90
2018-12-07T13:06:31.280Z,0.90
2018-12-07T13:09:07.168Z,1.00
2018-12-07T13:11:40.226Z,1.20
2018-12-07T13:14:13.381Z,1.03
2018-12-07T13:16:46.695Z,0.90
2018-12-07T13:19:19.967Z,1.00
2018-12-07T13:21:53.225Z,0.90
2018-12-07T13:24:26.345Z,1.27
2018-12-07T13:26:59.595Z,1.00
2018-12-07T13:29:32.824Z,0.83
2018-12-07T13:32:06.799Z,0.90
2018-12-07T13:34:39.382Z,0.87
2018-12-07T13:37:11.928Z,1.10
2018-12-07T13:39:45.479Z,1.60
2018-12-07T13:42:18.620Z,1.10
2018-12-07T13:44:51.706Z,0.90
2018-12-07T13:47:24.305Z,0.97
2018-12-07T13:50:04.638Z,1.10
2018-12-07T13:52:38.311Z,1.00
2018-12-07T13:55:11.557Z,1.10
2018-12-07T13:57:45.526Z,0.97
2018-12-07T14:00:18.306Z,1.30
2018-12-07T14:02:51.980Z,1.00
2018-12-07T14:05:32.013Z,1.13
2018-12-07T14:08:01.025Z,1.17
2018-12-07T14:10:33.960Z,1.33
2018-12-07T14:13:07.185Z,1.27
2018-12-07T14:15:40.798Z,1.10
2018-12-07T14:18:13.956Z,1.40
2018-12-07T14:20:47.467Z,1.30
2018-12-07T14:23:20.959Z,1.27
2018-12-07T14:25:54.238Z,1.50
2018-12-07T14:28:27.649Z,1.60
2018-12-07T14:31:01.186Z,1.17
2018-12-07T14:33:34.431Z,1.50
2018-12-07T14:36:07.734Z,1.00
2018-12-07T14:38:40.178Z,1.10
2018-12-07T14:44:08.171Z,1.83
2018-12-07T14:46:41.271Z,2.37
2018-12-07T14:49:14.409Z,1.90
2018-12-07T14:51:47.981Z,1.73
2018-12-07T14:54:21.095Z,1.47
2018-12-07T14:56:54.597Z,1.73
2018-12-07T14:59:28.142Z,1.40
2018-12-07T15:02:01.260Z,1.40
2018-12-07T15:04:34.553Z,1.70
2018-12-07T15:07:08.136Z,1.80
2018-12-07T15:09:41.442Z,1.80
2018-12-07T15:12:14.760Z,1.40
2018-12-07T15:14:48.712Z,1.60
2018-12-07T15:17:21.235Z,1.40
2018-12-07T15:19:54.695Z,1.40
2018-12-07T15:22:28.180Z,1.53
2018-12-07T15:25:01.437Z,1.57
2018-12-07T15:27:34.699Z,1.43
2018-12-07T15:30:07.583Z,1.70
2018-12-07T15:32:40.599Z,1.30
2018-12-07T15:35:13.970Z,1.03
2018-12-07T15:37:46.722Z,3.60
2018-12-07T15:40:20.016Z,1.83
2018-12-07T15:42:53.105Z,3.17
2018-12-07T15:45:26.432Z,1.40
2018-12-07T15:48:00.644Z,1.70
2018-12-07T15:50:35.721Z,1.63
2018-12-07T15:53:19.543Z,1.37
2018-12-07T15:55:53.009Z,1.60
2018-12-07T15:58:26.411Z,1.37
2018-12-07T16:00:59.910Z,1.20
2018-12-07T16:03:33.163Z,1.30
2018-12-07T16:06:07.912Z,1.33
2018-12-07T16:08:41.223Z,1.20
2018-12-07T16:11:14.464Z,1.23
2018-12-07T16:13:46.864Z,3.80
2018-12-07T16:16:20.452Z,3.60
2018-12-07T16:18:53.677Z,2.40
2018-12-07T16:21:26.971Z,1.80
2018-12-07T16:24:00.343Z,1.80
2018-12-07T16:26:33.622Z,1.83
2018-12-07T16:29:07.156Z,1.77
2018-12-07T16:31:40.595Z,1.40
2018-12-07T16:37:08.295Z,1.70
2018-12-07T16:39:41.825Z,1.83
2018-12-07T16:42:15.018Z,1.60
2018-12-07T16:44:48.302Z,2.07
2018-12-07T16:47:21.687Z,1.70
2018-12-07T16:49:54.877Z,1.80
2018-12-07T16:52:28.105Z,1.80
2018-12-07T16:55:01.561Z,2.30
2018-12-07T16:57:34.707Z,2.13
2018-12-07T17:00:08.683Z,2.27
2018-12-07T17:02:41.235Z,1.80
2018-12-07T17:05:14.718Z,2.27
2018-12-07T17:07:47.997Z,2.20
2018-12-07T17:10:21.556Z,1.87
2018-12-07T17:12:54.936Z,1.77
2018-12-07T17:15:28.222Z,2.30
2018-12-07T17:18:01.562Z,1.80
2018-12-07T17:20:34.922Z,2.40
2018-12-07T17:23:08.167Z,2.27
2018-12-07T17:25:41.422Z,1.83
2018-12-07T17:28:14.660Z,1.87
2018-12-07T17:30:49.108Z,2.10
2018-12-07T17:33:29.456Z,2.00
2018-12-07T17:36:01.894Z,2.60
2018-12-07T17:38:35.285Z,2.20
2018-12-07T17:41:08.585Z,2.20
2018-12-07T17:43:42.235Z,2.70
2018-12-07T17:46:15.352Z,1.57
2018-12-07T17:48:48.776Z,1.80
2018-12-07T17:54:15.039Z,2.47
2018-12-07T17:56:48.194Z,2.80
2018-12-07T17:59:21.600Z,2.70
2018-12-07T18:01:55.146Z,3.40
2018-12-07T18:04:28.343Z,3.53
2018-12-07T18:07:01.703Z,2.73
2018-12-07T18:09:35.212Z,2.90
2018-12-07T18:12:08.499Z,3.00
2018-12-07T18:14:42.832Z,2.23
2018-12-07T18:17:16.354Z,2.73
2018-12-07T18:19:49.673Z,2.23
2018-12-07T18:22:23.813Z,2.07
2018-12-07T18:24:57.543Z,1.80
2018-12-07T18:27:30.634Z,2.10
2018-12-07T18:30:05.288Z,2.60
2018-12-07T18:32:38.761Z,2.80
2018-12-07T18:35:12.125Z,2.87
2018-12-07T18:37:44.919Z,2.53
2018-12-07T18:40:18.184Z,2.77
2018-12-07T18:42:51.570Z,2.23
2018-12-07T18:45:25.022Z,3.33
2018-12-07T18:47:58.650Z,2.70
2018-12-07T18:50:31.657Z,2.63
2018-12-07T18:53:05.098Z,2.30
2018-12-07T18:55:38.337Z,1.97
2018-12-07T18:58:11.592Z,2.73
2018-12-07T19:00:44.837Z,2.43
2018-12-07T19:03:18.203Z,2.87
2018-12-07T19:05:51.717Z,3.17
2018-12-07T19:08:25.322Z,2.70
2018-12-07T19:10:58.549Z,3.10
2018-12-07T19:13:31.950Z,3.40
2018-12-07T19:16:05.141Z,2.90
2018-12-07T19:18:38.439Z,2.90
2018-12-07T19:21:11.832Z,3.97
2018-12-07T19:23:45.147Z,3.63
2018-12-07T19:26:18.654Z,3.40
2018-12-07T19:28:51.778Z,2.60
2018-12-07T19:31:25.018Z,2.97
2018-12-07T19:33:57.643Z,2.77
2018-12-07T19:36:31.096Z,2.87
2018-12-07T19:39:06.910Z,2.70
2018-12-07T19:41:39.919Z,3.30
2018-12-07T19:46:52.792Z,2.70
2018-12-07T19:49:26.327Z,3.00
2018-12-07T19:51:59.766Z,2.70
2018-12-07T19:54:33.020Z,2.80
2018-12-07T19:57:06.665Z,3.30
2018-12-07T19:59:39.845Z,2.63
2018-12-07T20:02:13.457Z,2.50
2018-12-07T20:04:46.628Z,2.80
2018-12-07T20:07:20.026Z,2.80
2018-12-07T20:09:53.132Z,2.33
2018-12-07T20:12:26.805Z,3.00
2018-12-07T20:15:00.140Z,4.07
2018-12-07T20:17:33.151Z,4.10
2018-12-07T20:20:06.952Z,3.40
2018-12-07T20:22:39.842Z,3.00
2018-12-07T20:25:13.474Z,3.50
2018-12-07T20:27:46.633Z,3.30
2018-12-07T20:30:21.190Z,3.80
2018-12-07T20:32:54.054Z,2.60
2018-12-07T20:35:29.083Z,2.73
2018-12-07T20:38:01.545Z,2.70
2018-12-07T20:40:35.215Z,2.80
2018-12-07T20:43:08.396Z,2.53
2018-12-07T20:45:41.715Z,2.20
2018-12-07T20:48:15.247Z,3.03
2018-12-07T20:50:48.393Z,2.23
2018-12-07T20:53:21.890Z,2.93
2018-12-07T20:55:55.386Z,2.50
2018-12-07T20:58:28.422Z,2.40
2018-12-07T21:01:02.353Z,2.20
2018-12-07T21:04:13.261Z,2.10
2018-12-07T21:13:52.951Z,1.80
2018-12-07T21:17:09.643Z,1.60
2018-12-07T21:19:49.806Z,1.47
2018-12-07T21:22:23.072Z,1.70
2018-12-07T21:24:56.240Z,1.17
2018-12-07T21:27:29.315Z,1.53
2018-12-07T21:30:35.812Z,2.40
2018-12-07T21:33:09.062Z,2.30
2018-12-07T21:36:23.979Z,1.20
2018-12-07T21:38:57.564Z,1.20
2018-12-07T21:41:30.919Z,1.27
2018-12-07T21:44:04.460Z,1.00
2018-12-07T21:46:37.903Z,1.00
2018-12-07T21:49:11.538Z,1.13
2018-12-07T21:51:56.679Z,0.90
2018-12-07T21:54:29.811Z,1.10
2018-12-07T21:57:02.303Z,1.00
2018-12-07T21:59:35.788Z,0.90
2018-12-07T22:02:08.992Z,1.00
2018-12-07T22:04:41.455Z,1.07
2018-12-07T22:07:15.051Z,1.07
2018-12-07T22:09:48.434Z,0.70
2018-12-07T22:12:21.761Z,0.70
2018-12-07T22:14:55.411Z,0.90
2018-12-07T22:17:28.420Z,0.70
2018-12-07T22:20:01.202Z,0.90
2018-12-07T22:22:34.787Z,0.90
2018-12-07T22:25:08.250Z,1.00
2018-12-07T22:27:41.300Z,0.70
2018-12-07T22:30:14.678Z,0.70
2018-12-07T22:32:48.434Z,0.90
2018-12-07T22:35:21.609Z,0.70
2018-12-07T22:37:54.930Z,0.80
2018-12-07T22:40:28.381Z,0.87
2018-12-07T22:43:01.580Z,1.10
2018-12-07T22:45:34.918Z,0.87
2018-12-07T22:48:08.108Z,0.80
2018-12-07T22:50:41.304Z,0.77
2018-12-07T22:53:14.644Z,0.80
2018-12-07T22:55:47.185Z,0.83
2018-12-07T22:58:19.587Z,0.70
2018-12-07T23:00:59.254Z,0.73
2018-12-07T23:03:32.621Z,0.70
2018-12-07T23:06:05.709Z,0.60
2018-12-07T23:08:38.193Z,0.70
2018-12-07T23:11:11.468Z,0.70
2018-12-07T23:13:44.891Z,0.70
2018-12-07T23:16:17.361Z,0.70
2018-12-07T23:18:49.903Z,0.70
2018-12-07T23:21:23.191Z,0.60
2018-12-07T23:23:55.635Z,0.80
2018-12-07T23:26:28.899Z,0.70
2018-12-07T23:29:06.351Z,1.00
2018-12-07T23:31:39.714Z,0.83
2018-12-07T23:34:12.447Z,0.80
2018-12-07T23:36:45.463Z,0.90
2018-12-07T23:39:19.503Z,0.80
2018-12-07T23:41:52.201Z,0.90
2018-12-07T23:44:25.434Z,0.90
2018-12-07T23:46:58.767Z,0.70
2018-12-07T23:49:31.240Z,1.43
2018-12-07T23:52:04.689Z,0.90
2018-12-07T23:54:37.881Z,0.80
2018-12-07T23:57:11.209Z,0.73
2018-12-07T23:59:44.607Z,0.67
